Time;durP1;ratioP1;P1;durP2;ratioP2;P2;SDS_P1;SDS_P2;PMS_P1;PMS_P2;Temp;Humidity;BMP_temperature;BMP_pressure;BME280_temperature;BME280_humidity;BME280_pressure;Samples;Min_cycle;Max_cycle;Signal;HPM_P1;HPM_P2
2022/09/08 00:00:55;;;;;;;0.80;0.80;;;20.20;99.90;;;;;;5039818;28;20565;-59
2022/09/08 00:03:24;;;;;;;0.80;0.80;;;20.30;99.90;;;;;;5036271;28;20208;-60
2022/09/08 00:05:55;;;;;;;0.90;0.90;;;20.40;99.90;;;;;;5047426;28;20567;-62
2022/09/08 00:08:22;;;;;;;0.97;0.97;;;20.40;99.90;;;;;;5037846;28;20284;-62
2022/09/08 00:10:51;;;;;;;1.00;1.00;;;20.40;99.90;;;;;;5039326;28;20207;-62
2022/09/08 00:13:19;;;;;;;1.00;1.00;;;20.40;99.90;;;;;;5041295;28;20212;-62
2022/09/08 00:15:47;;;;;;;0.90;0.90;;;20.50;99.90;;;;;;5037117;28;20197;-61
2022/09/08 00:18:15;;;;;;;0.80;0.80;;;20.50;99.90;;;;;;5039964;28;20458;-61
2022/09/08 00:20:41;;;;;;;1.00;1.00;;;20.60;99.90;;;;;;5037955;28;20627;-61
2022/09/08 00:23:09;;;;;;;1.00;1.00;;;20.60;99.90;;;;;;5037799;28;20205;-61
2022/09/08 00:25:36;;;;;;;0.80;0.80;;;20.60;99.90;;;;;;5045331;28;20307;-61
2022/09/08 00:28:03;;;;;;;1.00;1.00;;;20.50;99.90;;;;;;5040139;28;20570;-62
2022/09/08 00:30:31;;;;;;;1.10;0.93;;;20.50;99.90;;;;;;5046651;28;20200;-62
2022/09/08 00:32:59;;;;;;;0.77;0.77;;;20.40;99.90;;;;;;5046491;28;20241;-61
2022/09/08 00:35:26;;;;;;;0.95;0.90;;;20.50;99.90;;;;;;5035249;28;20222;-62
2022/09/08 00:37:53;;;;;;;0.90;0.90;;;20.60;99.90;;;;;;5038700;28;20196;-62
2022/09/08 00:40:22;;;;;;;0.80;0.80;;;20.60;99.90;;;;;;5034715;28;20217;-63
2022/09/08 00:42:57;;;;;;;0.80;0.80;;;20.60;99.90;;;;;;5035560;28;20669;-62
2022/09/08 00:45:26;;;;;;;0.97;0.97;;;20.60;99.90;;;;;;5036949;28;20229;-62
2022/09/08 00:47:58;;;;;;;0.77;0.77;;;20.60;99.90;;;;;;5037261;28;20580;-61
2022/09/08 00:50:28;;;;;;;0.80;0.80;;;20.60;99.90;;;;;;5034827;28;20197;-62
2022/09/08 00:53:00;;;;;;;0.88;0.88;;;20.50;99.90;;;;;;5038991;28;20203;-62
2022/09/08 00:55:29;;;;;;;0.90;0.90;;;20.50;99.90;;;;;;5033465;28;20235;-62
2022/09/08 00:57:56;;;;;;;0.83;0.83;;;20.50;99.90;;;;;;5037945;28;20209;-62
2022/09/08 01:00:23;;;;;;;0.90;0.90;;;20.40;99.90;;;;;;5032796;28;20228;-61
2022/09/08 01:02:50;;;;;;;1.00;1.00;;;20.40;99.90;;;;;;5037063;28;20195;-61
2022/09/08 01:05:21;;;;;;;0.97;0.97;;;20.40;99.90;;;;;;5038393;28;20634;-62
2022/09/08 01:13:40;;;;;;;1.20;1.20;;;20.10;99.90;;;;;;5035455;28;20239;-62
2022/09/08 01:16:08;;;;;;;1.40;1.30;;;20.10;99.90;;;;;;5043827;28;20212;-62
2022/09/08 01:18:35;;;;;;;1.60;1.50;;;20.10;99.90;;;;;;5040230;28;20236;-62
2022/09/08 01:21:13;;;;;;;1.30;1.30;;;20.00;99.90;;;;;;5046775;28;20211;-59
2022/09/08 01:24:08;;;;;;;1.20;1.20;;;20.00;99.90;;;;;;5055205;28;20219;-60
2022/09/08 01:26:49;;;;;;;2.10;1.50;;;20.00;99.90;;;;;;5059839;28;20203;-62
2022/09/08 01:29:20;;;;;;;1.00;1.00;;;20.00;99.90;;;;;;5063330;28;20256;-62
2022/09/08 01:31:49;;;;;;;1.30;1.30;;;20.00;99.90;;;;;;5060294;28;20215;-59
2022/09/08 01:34:16;;;;;;;1.03;1.03;;;20.00;99.90;;;;;;5064785;28;20234;-62
2022/09/08 01:36:43;;;;;;;1.10;1.10;;;20.00;99.90;;;;;;5063645;28;20204;-62
2022/09/08 01:39:09;;;;;;;1.10;1.10;;;20.00;99.90;;;;;;5063599;28;20223;-61
2022/09/08 01:41:36;;;;;;;1.20;1.20;;;20.00;99.90;;;;;;5063192;28;20666;-61
2022/09/08 01:44:04;;;;;;;0.90;0.90;;;20.00;99.90;;;;;;5068073;28;20224;-61
2022/09/08 01:46:32;;;;;;;0.80;0.80;;;20.00;99.90;;;;;;5061906;28;20211;-61
2022/09/08 01:48:59;;;;;;;1.50;1.00;;;20.00;99.90;;;;;;5068351;28;20210;-61
2022/09/08 01:51:26;;;;;;;1.10;1.10;;;19.90;99.90;;;;;;5061932;28;20210;-61
2022/09/08 01:53:53;;;;;;;1.10;1.00;;;19.90;99.90;;;;;;5069705;28;20232;-61
2022/09/08 01:56:20;;;;;;;0.87;0.87;;;19.90;99.90;;;;;;5061601;28;20200;-61
2022/09/08 01:58:47;;;;;;;1.10;1.10;;;20.00;99.90;;;;;;5064632;28;20281;-61
2022/09/08 02:01:14;;;;;;;0.83;0.83;;;20.10;99.90;;;;;;5065261;28;20204;-61
2022/09/08 02:03:42;;;;;;;1.00;1.00;;;20.10;99.90;;;;;;5063104;28;20216;-61
2022/09/08 02:06:10;;;;;;;0.70;0.70;;;20.10;99.90;;;;;;5066616;28;20200;-61
2022/09/08 02:08:37;;;;;;;1.00;1.00;;;20.10;99.90;;;;;;5061717;28;20195;-62
2022/09/08 02:11:04;;;;;;;1.00;1.00;;;20.10;99.90;;;;;;5067998;28;20204;-62
2022/09/08 02:13:31;;;;;;;0.87;0.87;;;20.10;99.90;;;;;;5061293;28;20681;-61
2022/09/08 02:16:00;;;;;;;1.70;1.00;;;20.10;99.90;;;;;;5064699;28;20211;-61
2022/09/08 02:18:29;;;;;;;1.00;1.00;;;20.10;99.90;;;;;;5062168;28;20290;-61
2022/09/08 02:21:06;;;;;;;0.80;0.80;;;20.00;99.90;;;;;;5050081;28;20257;-61
2022/09/08 02:23:33;;;;;;;0.70;0.70;;;20.10;99.90;;;;;;5063119;28;20204;-61
2022/09/08 02:25:59;;;;;;;0.80;0.80;;;20.10;99.90;;;;;;5064518;28;20221;-62
2022/09/08 02:28:26;;;;;;;0.88;0.88;;;20.10;99.90;;;;;;5063273;28;20208;-62
2022/09/08 02:30:58;;;;;;;0.90;0.90;;;20.00;99.90;;;;;;5063985;28;20235;-62
2022/09/08 02:33:26;;;;;;;0.80;0.80;;;20.10;99.90;;;;;;5063047;28;20203;-62
2022/09/08 02:35:53;;;;;;;1.00;1.00;;;20.00;99.90;;;;;;5068042;28;20253;-62
2022/09/08 02:38:22;;;;;;;0.90;0.90;;;20.10;99.90;;;;;;5063744;28;20207;-62
2022/09/08 02:40:49;;;;;;;0.80;0.80;;;20.10;99.90;;;;;;5061413;28;20223;-62
2022/09/08 02:43:15;;;;;;;0.80;0.80;;;20.00;99.90;;;;;;5064597;28;20203;-62
2022/09/08 02:45:43;;;;;;;0.80;0.80;;;20.10;99.90;;;;;;5062184;28;20575;-62
2022/09/08 02:48:09;;;;;;;0.80;0.80;;;20.10;99.90;;;;;;5064273;28;20203;-62
2022/09/08 02:50:36;;;;;;;0.87;0.87;;;20.10;99.90;;;;;;5063036;28;20204;-62
2022/09/08 02:53:03;;;;;;;0.50;0.50;;;20.10;99.90;;;;;;5064583;28;20241;-61
2022/09/08 02:55:32;;;;;;;1.10;0.80;;;20.10;99.90;;;;;;5065745;22;20237;-66
2022/09/08 02:57:59;;;;;;;0.60;0.60;;;20.10;99.90;;;;;;5056708;28;20207;-67
2022/09/08 03:00:31;;;;;;;0.60;0.60;;;20.10;99.90;;;;;;5066128;28;20230;-69
2022/09/08 03:02:58;;;;;;;0.90;0.70;;;20.10;99.90;;;;;;5063803;28;20199;-68
2022/09/08 03:05:25;;;;;;;0.53;0.53;;;20.00;99.90;;;;;;5063533;28;20755;-67
2022/09/08 03:07:52;;;;;;;0.70;0.70;;;20.00;99.90;;;;;;5063902;28;20199;-69
2022/09/08 03:10:23;;;;;;;0.70;0.70;;;20.00;99.90;;;;;;5064008;28;20230;-67
2022/09/08 03:12:52;;;;;;;0.60;0.60;;;19.90;99.90;;;;;;5063187;28;20262;-67
2022/09/08 03:15:20;;;;;;;0.43;0.43;;;20.00;99.90;;;;;;5066601;28;20228;-67
2022/09/08 03:17:47;;;;;;;0.40;0.40;;;19.90;99.90;;;;;;5062203;28;20649;-67
2022/09/08 03:20:14;;;;;;;0.57;0.57;;;19.90;99.90;;;;;;5064179;28;20579;-66
2022/09/08 03:22:41;;;;;;;0.60;0.60;;;19.90;99.90;;;;;;5062041;28;20685;-67
2022/09/08 03:25:09;;;;;;;0.40;0.40;;;19.80;99.90;;;;;;5064561;28;20314;-67
2022/09/08 03:27:36;;;;;;;0.37;0.37;;;19.50;99.90;;;;;;5066721;28;20212;-65
2022/09/08 03:30:05;;;;;;;0.35;0.35;;;19.20;99.90;;;;;;5057229;28;20199;-66
2022/09/08 03:32:34;;;;;;;0.23;0.23;;;19.00;99.90;;;;;;5057264;28;20217;-67
2022/09/08 03:35:01;;;;;;;0.30;0.30;;;18.80;99.90;;;;;;5067038;28;20587;-66
2022/09/08 03:37:28;;;;;;;0.40;0.40;;;18.70;99.90;;;;;;5071543;28;20203;-66
2022/09/08 03:39:55;;;;;;;0.32;0.32;;;18.70;99.90;;;;;;5062081;28;20216;-67
2022/09/08 03:42:22;;;;;;;0.40;0.40;;;18.60;99.90;;;;;;5066059;28;20207;-66
2022/09/08 03:44:49;;;;;;;0.67;0.67;;;18.60;99.90;;;;;;5064154;28;20804;-67
2022/09/08 03:47:17;;;;;;;0.40;0.40;;;18.80;99.90;;;;;;5066248;28;20206;-67
2022/09/08 03:49:46;;;;;;;2.17;0.57;;;18.90;99.90;;;;;;5061635;28;20195;-66
2022/09/08 03:52:13;;;;;;;0.60;0.60;;;19.00;99.90;;;;;;5055151;28;20246;-67
2022/09/08 03:54:49;;;;;;;0.30;0.30;;;18.90;99.90;;;;;;5063839;28;20609;-66
2022/09/08 03:57:17;;;;;;;0.30;0.30;;;18.90;99.90;;;;;;5058466;28;20283;-67
2022/09/08 03:59:44;;;;;;;0.30;0.30;;;18.90;99.90;;;;;;5059791;28;20361;-66
2022/09/08 04:02:11;;;;;;;0.57;0.50;;;18.80;99.90;;;;;;5059376;28;20206;-66
2022/09/08 04:04:40;;;;;;;0.40;0.40;;;18.70;99.90;;;;;;5060334;28;20763;-66
2022/09/08 04:07:07;;;;;;;0.57;0.57;;;18.60;99.90;;;;;;5063538;28;20733;-67
2022/09/08 04:09:34;;;;;;;0.57;0.57;;;18.60;99.90;;;;;;5060067;28;20283;-65
2022/09/08 04:12:01;;;;;;;0.30;0.30;;;18.40;99.90;;;;;;5066177;28;20210;-67
2022/09/08 04:14:29;;;;;;;0.43;0.43;;;18.40;99.90;;;;;;5059311;28;20291;-67
2022/09/08 04:16:55;;;;;;;0.40;0.40;;;18.40;99.90;;;;;;5059363;28;20210;-67
2022/09/08 04:19:22;;;;;;;0.60;0.60;;;18.40;99.90;;;;;;5059829;28;20223;-67
2022/09/08 04:21:50;;;;;;;0.30;0.30;;;18.40;99.90;;;;;;5062537;28;20214;-65
2022/09/08 04:24:18;;;;;;;0.30;0.30;;;18.40;99.90;;;;;;5062706;28;20204;-66
2022/09/08 04:26:45;;;;;;;0.40;0.40;;;18.40;99.90;;;;;;5051709;28;20227;-66
2022/09/08 04:29:11;;;;;;;0.60;0.60;;;18.30;99.90;;;;;;5063854;28;20200;-66
2022/09/08 04:31:38;;;;;;;0.60;0.50;;;18.30;99.90;;;;;;5066046;28;20263;-68
2022/09/08 04:34:05;;;;;;;0.40;0.40;;;18.30;99.90;;;;;;5070054;28;20230;-67
2022/09/08 04:36:32;;;;;;;0.50;0.50;;;18.20;99.90;;;;;;5063849;28;20219;-65
2022/09/08 04:39:01;;;;;;;0.40;0.40;;;18.20;99.90;;;;;;5062162;28;20231;-67
2022/09/08 04:41:30;;;;;;;0.40;0.40;;;18.20;99.90;;;;;;5063659;28;20712;-67
2022/09/08 04:44:00;;;;;;;0.50;0.50;;;18.10;99.90;;;;;;5057815;28;20657;-66
2022/09/08 04:46:27;;;;;;;0.43;0.43;;;18.10;99.90;;;;;;5063697;28;20227;-67
2022/09/08 04:48:55;;;;;;;0.37;0.37;;;18.10;99.90;;;;;;5062416;28;20211;-66
2022/09/08 04:51:23;;;;;;;0.80;0.53;;;18.10;99.90;;;;;;5062113;28;20588;-65
2022/09/08 04:53:52;;;;;;;0.40;0.40;;;18.10;99.90;;;;;;5066063;28;20200;-66
2022/09/08 04:56:22;;;;;;;0.27;0.27;;;18.00;99.90;;;;;;5066623;28;20832;-66
2022/09/08 04:58:49;;;;;;;0.40;0.40;;;18.00;99.90;;;;;;5066063;28;20207;-66
2022/09/08 05:01:19;;;;;;;0.30;0.30;;;18.00;99.90;;;;;;5067427;28;20226;-67
2022/09/08 05:03:46;;;;;;;0.50;0.50;;;17.90;99.90;;;;;;5064404;28;20222;-68
2022/09/08 05:06:15;;;;;;;0.40;0.40;;;17.90;99.90;;;;;;5071155;28;20277;-68
2022/09/08 05:08:43;;;;;;;0.50;0.50;;;17.90;99.90;;;;;;5070411;28;20212;-66
2022/09/08 05:11:10;;;;;;;0.40;0.40;;;17.90;99.90;;;;;;5068656;28;20223;-67
2022/09/08 05:13:39;;;;;;;0.77;0.30;;;17.90;99.90;;;;;;5058804;28;20568;-66
2022/09/08 05:16:08;;;;;;;0.53;0.50;;;17.90;99.90;;;;;;5071361;28;20594;-67
2022/09/08 05:18:36;;;;;;;0.30;0.30;;;17.90;99.90;;;;;;5065173;28;20268;-66
2022/09/08 05:21:04;;;;;;;0.30;0.30;;;17.90;99.90;;;;;;5065586;28;20223;-65
2022/09/08 05:23:31;;;;;;;0.50;0.50;;;17.90;99.90;;;;;;5066201;28;20242;-66
2022/09/08 05:26:00;;;;;;;0.50;0.43;;;17.90;99.90;;;;;;5065055;28;20223;-65
2022/09/08 05:28:29;;;;;;;0.33;0.33;;;17.80;99.90;;;;;;5065910;28;20568;-66
2022/09/08 05:30:58;;;;;;;0.70;0.70;;;17.80;99.90;;;;;;5064295;28;20262;-66
2022/09/08 05:33:24;;;;;;;0.47;0.47;;;17.80;99.90;;;;;;5066118;28;20204;-66
2022/09/08 05:35:52;;;;;;;0.40;0.40;;;17.80;99.90;;;;;;5063196;28;20266;-67
2022/09/08 05:38:20;;;;;;;0.50;0.50;;;17.80;99.90;;;;;;5064392;28;20231;-67
2022/09/08 05:40:47;;;;;;;0.40;0.40;;;17.80;99.90;;;;;;5070857;28;20778;-65
2022/09/08 05:43:15;;;;;;;0.60;0.60;;;17.80;99.90;;;;;;5062603;28;20222;-66
2022/09/08 05:45:44;;;;;;;0.50;0.50;;;17.80;99.90;;;;;;5071046;28;20408;-66
2022/09/08 05:48:12;;;;;;;0.93;0.57;;;17.80;99.90;;;;;;5062414;28;20200;-66
2022/09/08 05:50:41;;;;;;;0.50;0.50;;;17.80;99.90;;;;;;5064315;28;20269;-66
2022/09/08 05:53:09;;;;;;;0.60;0.60;;;17.70;99.90;;;;;;5067898;28;20297;-66
2022/09/08 05:55:36;;;;;;;0.50;0.50;;;17.80;99.90;;;;;;5063734;28;20610;-65
2022/09/08 05:58:03;;;;;;;0.40;0.40;;;17.80;99.90;;;;;;5068159;28;20204;-66
2022/09/08 06:00:30;;;;;;;0.40;0.40;;;17.80;99.90;;;;;;5055217;28;20232;-67
2022/09/08 06:02:56;;;;;;;0.53;0.53;;;17.80;99.90;;;;;;5057235;28;20196;-67
2022/09/08 06:05:25;;;;;;;0.60;0.60;;;17.50;99.90;;;;;;5054533;28;20701;-66
2022/09/08 06:07:51;;;;;;;0.40;0.40;;;17.70;99.90;;;;;;5062941;28;20203;-66
2022/09/08 06:10:18;;;;;;;0.50;0.50;;;17.70;99.90;;;;;;5059932;28;20219;-65
2022/09/08 06:12:46;;;;;;;0.40;0.40;;;17.80;99.90;;;;;;5063345;28;20287;-66
2022/09/08 06:15:13;;;;;;;0.40;0.40;;;17.90;99.90;;;;;;5064562;28;20219;-66
2022/09/08 06:17:40;;;;;;;0.40;0.40;;;17.90;99.90;;;;;;5061393;28;20204;-65
2022/09/08 06:20:08;;;;;;;0.30;0.30;;;17.90;99.90;;;;;;5069064;28;20223;-67
2022/09/08 06:22:36;;;;;;;0.40;0.40;;;18.00;99.90;;;;;;5063002;28;20654;-66
2022/09/08 06:25:04;;;;;;;0.37;0.37;;;18.00;99.90;;;;;;5064273;28;20591;-67
2022/09/08 06:27:41;;;;;;;0.50;0.50;;;18.00;99.90;;;;;;5058788;28;20287;-65
2022/09/08 06:30:12;;;;;;;0.57;0.57;;;18.10;99.90;;;;;;5053158;28;20202;-66
2022/09/08 06:32:44;;;;;;;0.60;0.60;;;18.10;99.90;;;;;;5061111;28;20674;-65
2022/09/08 06:35:16;;;;;;;0.60;0.60;;;18.00;99.90;;;;;;5064483;28;20701;-67
2022/09/08 06:37:49;;;;;;;0.23;0.23;;;18.00;99.90;;;;;;5064126;28;20206;-65
2022/09/08 06:40:22;;;;;;;0.60;0.60;;;17.90;99.90;;;;;;5066181;28;20615;-66
2022/09/08 06:42:55;;;;;;;0.57;0.57;;;18.00;99.90;;;;;;5055326;28;20214;-66
2022/09/08 06:45:26;;;;;;;0.50;0.50;;;17.90;99.90;;;;;;5062207;28;20220;-67
2022/09/08 06:48:12;;;;;;;0.50;0.50;;;18.00;99.90;;;;;;5066001;28;20669;-68
2022/09/08 06:50:56;;;;;;;0.40;0.40;;;18.10;99.90;;;;;;5054551;28;20191;-67
2022/09/08 06:53:29;;;;;;;0.43;0.43;;;18.10;99.90;;;;;;5062625;28;20203;-67
2022/09/08 06:56:01;;;;;;;0.50;0.50;;;18.20;99.90;;;;;;5051364;28;20238;-66
2022/09/08 06:58:31;;;;;;;0.40;0.40;;;18.10;99.90;;;;;;5062540;28;20197;-67
2022/09/08 07:01:05;;;;;;;0.20;0.20;;;18.20;99.90;;;;;;5051529;28;20280;-66
2022/09/08 07:03:46;;;;;;;0.40;0.40;;;18.30;99.90;;;;;;5061304;28;20235;-66
2022/09/08 07:06:16;;;;;;;0.47;0.47;;;18.30;99.90;;;;;;5064571;28;20234;-66
2022/09/08 07:09:02;;;;;;;0.60;0.60;;;18.50;99.90;;;;;;5059967;28;20196;-66
2022/09/08 07:11:42;;;;;;;0.47;0.40;;;18.60;99.90;;;;;;5064170;28;20201;-66
2022/09/08 07:14:27;;;;;;;0.50;0.50;;;18.60;99.90;;;;;;5055587;28;20209;-66
2022/09/08 07:17:00;;;;;;;0.60;0.60;;;18.70;99.90;;;;;;5059913;28;20546;-66
2022/09/08 07:19:33;;;;;;;0.97;0.77;;;18.70;99.90;;;;;;5063890;28;20575;-68
2022/09/08 07:22:06;;;;;;;1.10;0.70;;;18.90;99.90;;;;;;5061828;28;20207;-66
2022/09/08 07:24:38;;;;;;;0.47;0.47;;;18.90;99.90;;;;;;5057888;28;20260;-65
2022/09/08 07:27:08;;;;;;;1.10;1.00;;;19.00;99.90;;;;;;5064320;28;20203;-67
2022/09/08 07:29:40;;;;;;;0.57;0.57;;;19.00;99.90;;;;;;5058482;28;20222;-67
2022/09/08 07:32:14;;;;;;;0.50;0.50;;;19.10;99.90;;;;;;5053281;28;20199;-65
2022/09/08 07:34:49;;;;;;;1.43;0.67;;;19.30;99.90;;;;;;5055360;28;20219;-66
2022/09/08 07:37:23;;;;;;;0.80;0.77;;;19.40;99.90;;;;;;5052800;28;20204;-67
2022/09/08 07:39:59;;;;;;;0.40;0.40;;;19.40;99.90;;;;;;5064667;28;20291;-67
2022/09/08 07:42:27;;;;;;;0.63;0.63;;;19.50;99.90;;;;;;5065038;28;20227;-66
2022/09/08 07:44:59;;;;;;;0.60;0.60;;;19.60;99.90;;;;;;5063307;28;20682;-68
2022/09/08 07:47:39;;;;;;;0.47;0.40;;;19.70;99.90;;;;;;5067668;28;20203;-67
2022/09/08 07:50:18;;;;;;;0.50;0.50;;;19.80;99.90;;;;;;5066223;28;20239;-67
2022/09/08 07:52:51;;;;;;;0.90;0.77;;;20.00;99.90;;;;;;5066449;28;20217;-66
2022/09/08 07:55:26;;;;;;;0.60;0.60;;;20.00;99.90;;;;;;5060164;28;20228;-65
2022/09/08 07:58:05;;;;;;;0.70;0.70;;;20.00;99.90;;;;;;5066392;28;20199;-67
2022/09/08 08:00:43;;;;;;;1.10;1.10;;;20.10;99.90;;;;;;5060044;28;20219;-66
2022/09/08 08:03:37;;;;;;;0.50;0.50;;;20.20;99.90;;;;;;5050860;28;20259;-66
2022/09/08 08:06:09;;;;;;;0.60;0.60;;;20.40;99.90;;;;;;5063599;28;20223;-66
2022/09/08 08:08:45;;;;;;;0.60;0.60;;;20.50;99.90;;;;;;5060547;28;20207;-66
2022/09/08 08:11:21;;;;;;;0.40;0.40;;;20.40;99.90;;;;;;5062846;28;20295;-67
2022/09/08 08:14:03;;;;;;;0.50;0.50;;;20.20;99.90;;;;;;5061835;28;20293;-66
2022/09/08 08:16:42;;;;;;;0.50;0.50;;;20.20;99.90;;;;;;5062809;28;20223;-67
2022/09/08 08:19:25;;;;;;;0.55;0.55;;;20.30;99.90;;;;;;5058724;28;20219;-65
2022/09/08 08:21:58;;;;;;;0.67;0.67;;;20.30;99.90;;;;;;5065076;28;20230;-66
2022/09/08 08:24:34;;;;;;;0.60;0.60;;;20.20;99.90;;;;;;5055095;28;20642;-65
2022/09/08 08:27:09;;;;;;;0.70;0.70;;;20.20;99.90;;;;;;5052004;28;20211;-66
2022/09/08 08:29:56;;;;;;;0.60;0.60;;;20.10;99.90;;;;;;5057015;28;20199;-66
2022/09/08 08:32:27;;;;;;;0.60;0.60;;;20.00;99.90;;;;;;5062331;28;20204;-67
2022/09/08 08:34:59;;;;;;;0.30;0.30;;;20.00;99.90;;;;;;5061899;28;20215;-65
2022/09/08 08:37:31;;;;;;;0.60;0.60;;;20.00;99.90;;;;;;5059886;28;20248;-66
2022/09/08 08:40:00;;;;;;;0.70;0.70;;;20.10;99.90;;;;;;5063440;28;20203;-66
2022/09/08 08:42:52;;;;;;;0.73;0.73;;;20.30;99.90;;;;;;5063804;28;20223;-65
2022/09/08 08:45:29;;;;;;;0.60;0.60;;;20.80;99.90;;;;;;5054928;28;20235;-67
2022/09/08 08:48:09;;;;;;;0.60;0.60;;;21.30;99.90;;;;;;5044942;28;20287;-65
2022/09/08 08:51:04;;;;;;;0.50;0.50;;;21.60;99.90;;;;;;5049659;28;20206;-66
2022/09/08 08:54:04;;;;;;;0.47;0.47;;;21.60;99.90;;;;;;5055432;28;20212;-67
2022/09/08 08:56:38;;;;;;;0.50;0.50;;;21.40;99.90;;;;;;5052647;28;20267;-66
2022/09/08 08:59:33;;;;;;;0.40;0.40;;;21.20;99.90;;;;;;5044133;28;20290;-66
2022/09/08 09:02:14;;;;;;;0.67;0.57;;;21.20;99.90;;;;;;5047107;28;20305;-67
2022/09/08 09:05:03;;;;;;;0.40;0.40;;;21.50;99.90;;;;;;5051964;28;20224;-67
2022/09/08 09:07:55;;;;;;;0.47;0.47;;;21.50;99.90;;;;;;5043495;28;20200;-67
2022/09/08 09:10:51;;;;;;;0.67;0.67;;;21.50;99.90;;;;;;5053039;28;20204;-66
2022/09/08 09:13:51;;;;;;;0.60;0.60;;;21.60;99.90;;;;;;5043568;28;20196;-68
2022/09/08 09:16:51;;;;;;;0.60;0.60;;;21.80;99.90;;;;;;5025032;28;20220;-66
2022/09/08 09:19:47;;;;;;;0.80;0.80;;;22.00;99.90;;;;;;5045771;28;20206;-67
2022/09/08 09:22:22;;;;;;;0.50;0.50;;;22.20;99.90;;;;;;5050635;28;20220;-68
2022/09/08 09:25:05;;;;;;;0.90;0.70;;;22.10;99.90;;;;;;5052267;28;20228;-66
2022/09/08 09:27:42;;;;;;;1.02;0.50;;;22.30;99.90;;;;;;5053576;28;20204;-67
2022/09/08 09:30:20;;;;;;;1.17;0.60;;;22.40;99.90;;;;;;5054798;28;20230;-65
2022/09/08 09:33:21;;;;;;;0.83;0.83;;;22.10;99.90;;;;;;5053341;28;20200;-67
2022/09/08 09:36:28;;;;;;;0.70;0.70;;;22.00;99.90;;;;;;5045334;28;20220;-65
2022/09/08 09:39:25;;;;;;;0.87;0.87;;;21.80;99.90;;;;;;5043752;28;20210;-67
2022/09/08 09:42:12;;;;;;;0.80;0.80;;;21.60;99.90;;;;;;5049672;28;20232;-66
2022/09/08 09:45:01;;;;;;;0.63;0.60;;;21.60;99.90;;;;;;5045846;28;20678;-67
2022/09/08 09:47:42;;;;;;;0.70;0.70;;;21.50;99.90;;;;;;5059657;28;20230;-66
2022/09/08 09:50:43;;;;;;;0.80;0.80;;;21.70;99.90;;;;;;5052421;28;20211;-67
2022/09/08 09:53:29;;;;;;;0.80;0.80;;;21.80;99.90;;;;;;5047298;28;20897;-67
2022/09/08 09:56:20;;;;;;;0.70;0.70;;;21.80;99.90;;;;;;5053332;28;20243;-67
2022/09/08 09:59:17;;;;;;;0.80;0.80;;;22.00;99.90;;;;;;5034121;28;20727;-65
2022/09/08 10:02:06;;;;;;;0.80;0.80;;;22.00;99.90;;;;;;5046234;28;20209;-67
2022/09/08 10:04:57;;;;;;;1.00;1.00;;;22.00;99.90;;;;;;5043473;28;20231;-66
2022/09/08 10:08:04;;;;;;;0.60;0.60;;;22.30;99.90;;;;;;5047779;28;20196;-67
2022/09/08 10:10:54;;;;;;;0.60;0.60;;;22.60;99.90;;;;;;5041116;28;20302;-68
2022/09/08 10:13:58;;;;;;;0.63;0.63;;;23.20;99.90;;;;;;5046548;28;20196;-67
2022/09/08 10:16:54;;;;;;;0.63;0.63;;;23.20;99.90;;;;;;5040527;28;20589;-68
2022/09/08 10:20:03;;;;;;;0.85;0.85;;;23.00;99.90;;;;;;5043498;28;20580;-67
2022/09/08 10:23:12;;;;;;;1.07;0.60;;;22.90;99.90;;;;;;5044944;28;20323;-68
2022/09/08 10:26:14;;;;;;;0.60;0.60;;;22.60;99.90;;;;;;5040436;28;20323;-69
2022/09/08 10:29:07;;;;;;;0.65;0.65;;;22.60;99.90;;;;;;5039861;28;20207;-65
2022/09/08 10:32:01;;;;;;;0.60;0.60;;;22.40;99.90;;;;;;5042507;28;20678;-66
2022/09/08 10:35:03;;;;;;;0.60;0.60;;;22.30;99.90;;;;;;5043058;28;20205;-67
2022/09/08 10:38:00;;;;;;;0.70;0.70;;;22.10;99.90;;;;;;5011808;28;20210;-67
2022/09/08 10:40:39;;;;;;;0.88;0.88;;;22.30;99.90;;;;;;5065627;28;20206;-67
2022/09/08 10:43:28;;;;;;;0.80;0.80;;;22.60;99.90;;;;;;5059567;28;20228;-66
2022/09/08 10:46:18;;;;;;;0.80;0.80;;;22.70;99.90;;;;;;5073170;28;20216;-65
2022/09/08 10:49:21;;;;;;;0.73;0.73;;;23.00;99.90;;;;;;5064420;28;20317;-67
2022/09/08 10:52:17;;;;;;;0.70;0.70;;;23.30;99.90;;;;;;5063297;28;20286;-66
2022/09/08 10:55:28;;;;;;;1.00;0.57;;;23.60;99.90;;;;;;5063070;28;20230;-66
2022/09/08 10:58:23;;;;;;;0.67;0.67;;;24.10;99.90;;;;;;5049934;28;20238;-67
2022/09/08 11:01:04;;;;;;;0.70;0.70;;;24.00;99.90;;;;;;5033244;28;20665;-69
2022/09/08 11:03:51;;;;;;;0.80;0.80;;;23.80;99.90;;;;;;5060113;28;20262;-68
2022/09/08 11:06:28;;;;;;;0.57;0.57;;;23.80;99.90;;;;;;5064520;28;20238;-67
2022/09/08 11:09:32;;;;;;;0.57;0.57;;;23.70;99.90;;;;;;5076661;22;20357;-61
2022/09/08 11:12:26;;;;;;;0.70;0.70;;;23.60;99.90;;;;;;5059447;28;20205;-61
2022/09/08 11:15:28;;;;;;;0.50;0.50;;;23.60;99.90;;;;;;5069614;28;20235;-61
2022/09/08 11:18:09;;;;;;;0.65;0.65;;;23.60;99.90;;;;;;5042234;28;20199;-61
2022/09/08 11:20:44;;;;;;;0.60;0.60;;;23.70;99.90;;;;;;5019897;28;20674;-60
2022/09/08 11:23:20;;;;;;;0.50;0.50;;;23.90;99.90;;;;;;5016485;28;20228;-60
2022/09/08 11:25:59;;;;;;;0.93;0.70;;;23.70;99.90;;;;;;5019779;28;20205;-60
2022/09/08 11:28:42;;;;;;;0.45;0.45;;;23.40;99.90;;;;;;5021313;28;20224;-60
2022/09/08 11:31:23;;;;;;;0.68;0.68;;;23.30;99.90;;;;;;5013844;28;20208;-60
2022/09/08 11:34:13;;;;;;;0.47;0.43;;;23.20;99.90;;;;;;5018303;28;20553;-60
2022/09/08 11:37:00;;;;;;;0.60;0.60;;;23.50;99.90;;;;;;5010674;28;20213;-60
2022/09/08 11:39:39;;;;;;;0.63;0.63;;;24.00;99.90;;;;;;5027268;28;20220;-60
2022/09/08 11:42:30;;;;;;;0.60;0.60;;;24.40;99.90;;;;;;5030382;28;20224;-61
2022/09/08 11:45:06;;;;;;;0.57;0.57;;;24.50;99.90;;;;;;5031526;28;20205;-60
2022/09/08 11:48:27;;;;;;;0.70;0.70;;;24.40;99.90;;;;;;5031695;28;20219;-60
2022/09/08 11:51:09;;;;;;;0.60;0.60;;;24.20;99.90;;;;;;5039342;28;20229;-60
2022/09/08 11:54:02;;;;;;;0.50;0.50;;;24.20;99.90;;;;;;5044326;28;20204;-60
2022/09/08 11:56:53;;;;;;;0.70;0.70;;;24.10;99.90;;;;;;5047681;28;20214;-60
2022/09/08 11:59:55;;;;;;;0.30;0.30;;;24.20;99.90;;;;;;5040848;28;20220;-60
2022/09/08 12:02:42;;;;;;;0.93;0.80;;;24.00;99.90;;;;;;4989735;28;20298;-60
2022/09/08 12:05:21;;;;;;;0.57;0.57;;;23.90;99.90;;;;;;5031090;28;20210;-60
2022/09/08 12:08:17;;;;;;;0.57;0.57;;;23.80;99.90;;;;;;5043201;28;20587;-60
2022/09/08 12:11:11;;;;;;;0.60;0.60;;;23.90;99.90;;;;;;5043630;28;20208;-60
2022/09/08 12:13:44;;;;;;;0.60;0.60;;;23.80;99.90;;;;;;5043924;28;20291;-60
2022/09/08 12:16:36;;;;;;;0.70;0.70;;;23.70;99.90;;;;;;5044619;28;20614;-60
2022/09/08 12:19:32;;;;;;;0.57;0.57;;;23.60;99.90;;;;;;5037134;28;20227;-60
2022/09/08 12:22:25;;;;;;;0.60;0.60;;;23.50;99.90;;;;;;5023836;28;20231;-61
2022/09/08 12:25:11;;;;;;;0.80;0.73;;;23.50;99.90;;;;;;5036306;28;20682;-60
2022/09/08 12:27:54;;;;;;;0.68;0.68;;;23.50;99.90;;;;;;5033457;28;20201;-60
2022/09/08 12:30:23;;;;;;;0.55;0.55;;;23.40;99.90;;;;;;5043836;28;20232;-61
2022/09/08 12:33:36;;;;;;;0.70;0.70;;;23.30;99.90;;;;;;5036095;28;20215;-60
2022/09/08 12:36:09;;;;;;;0.60;0.60;;;23.40;99.90;;;;;;5033395;28;20203;-61
2022/09/08 12:39:00;;;;;;;0.73;0.73;;;23.30;99.90;;;;;;5034017;28;20637;-60
2022/09/08 12:41:57;;;;;;;0.87;0.70;;;23.30;99.90;;;;;;5049994;28;20198;-62
2022/09/08 12:44:40;;;;;;;0.67;0.67;;;23.10;99.90;;;;;;5030750;28;20211;-63
2022/09/08 12:47:26;;;;;;;0.70;0.70;;;23.10;99.90;;;;;;5037857;28;20208;-63
2022/09/08 12:50:29;;;;;;;0.70;0.70;;;22.90;99.90;;;;;;5040729;28;20220;-63
2022/09/08 12:53:13;;;;;;;0.83;0.77;;;22.80;99.90;;;;;;4998163;28;20230;-63
2022/09/08 12:55:44;;;;;;;0.60;0.60;;;22.80;99.90;;;;;;5041228;28;20205;-63
2022/09/08 12:58:21;;;;;;;0.60;0.60;;;23.20;99.90;;;;;;5044469;28;20204;-63
2022/09/08 13:00:57;;;;;;;0.60;0.60;;;23.80;99.90;;;;;;5042287;28;20204;-62
2022/09/08 13:03:33;;;;;;;0.60;0.60;;;24.30;99.90;;;;;;5040114;28;20286;-61
2022/09/08 13:06:29;;;;;;;0.40;0.40;;;24.60;99.90;;;;;;5029212;28;20210;-61
2022/09/08 13:08:59;;;;;;;0.63;0.63;;;24.90;99.90;;;;;;5038943;28;20279;-62
2022/09/08 13:11:50;;;;;;;0.93;0.93;;;25.20;99.90;;;;;;5045619;28;20212;-62
2022/09/08 13:14:27;;;;;;;0.60;0.60;;;25.20;99.90;;;;;;5039173;28;20199;-62
2022/09/08 13:17:06;;;;;;;0.60;0.60;;;25.20;99.90;;;;;;5046191;28;20658;-61
2022/09/08 13:19:45;;;;;;;0.63;0.63;;;25.10;99.90;;;;;;5040687;28;20228;-62
2022/09/08 13:22:28;;;;;;;0.45;0.45;;;25.00;99.90;;;;;;5041764;28;20254;-62
2022/09/08 13:25:05;;;;;;;0.57;0.57;;;24.90;99.90;;;;;;5044621;28;21162;-60
2022/09/08 13:27:42;;;;;;;0.50;0.50;;;24.90;99.90;;;;;;5050636;28;20674;-63
2022/09/08 13:30:13;;;;;;;0.40;0.40;;;25.00;99.90;;;;;;5051821;28;20310;-62
2022/09/08 13:33:08;;;;;;;1.20;0.80;;;25.00;99.90;;;;;;5048870;28;20234;-62
2022/09/08 13:35:51;;;;;;;1.13;0.70;;;24.90;99.90;;;;;;5045393;28;20218;-61
2022/09/08 13:38:34;;;;;;;0.63;0.63;;;24.80;99.90;;;;;;5044538;28;20211;-61
2022/09/08 13:41:13;;;;;;;0.68;0.68;;;24.70;99.90;;;;;;5039188;28;20211;-61